Time;durP1;ratioP1;P1;durP2;ratioP2;P2;SDS_P1;SDS_P2;PMS_P1;PMS_P2;Temp;Humidity;BMP_temperature;BMP_pressure;BME280_temperature;BME280_humidity;BME280_pressure;Samples;Min_cycle;Max_cycle;Signal;HPM_P1;HPM_P2
2023/09/08 00:02:04;;;;;;;926.03;832.45;;;18.60;73.40;;;;;;5054208;28;20053;-71
2023/09/08 00:04:30;;;;;;;778.75;710.40;;;18.50;73.50;;;;;;5054592;28;20052;-71
2023/09/08 00:06:55;;;;;;;786.05;717.47;;;18.50;73.50;;;;;;5043760;28;20102;-70
2023/09/08 00:09:21;;;;;;;823.80;744.30;;;18.50;73.60;;;;;;5051736;28;20044;-69
2023/09/08 00:11:47;;;;;;;845.67;764.10;;;18.40;73.70;;;;;;5033582;28;20053;-69
2023/09/08 00:14:13;;;;;;;754.90;688.92;;;18.40;73.80;;;;;;5051112;28;20049;-71
2023/09/08 00:16:42;;;;;;;774.70;705.25;;;18.30;73.90;;;;;;5040341;28;20479;-71
2023/09/08 00:19:08;;;;;;;764.67;692.92;;;18.20;74.10;;;;;;5017341;28;20080;-69
2023/09/08 00:21:34;;;;;;;825.95;747.15;;;18.20;74.10;;;;;;5051426;28;20067;-72
2023/09/08 00:24:00;;;;;;;764.42;692.67;;;18.10;74.10;;;;;;5050428;28;20475;-71
2023/09/08 00:26:26;;;;;;;868.05;782.50;;;18.00;74.30;;;;;;5022763;28;20056;-72
2023/09/08 00:28:52;;;;;;;816.38;734.97;;;18.00;74.40;;;;;;5050778;28;20110;-71
2023/09/08 00:31:18;;;;;;;761.28;692.67;;;17.90;74.30;;;;;;5051619;28;20044;-71
2023/09/08 00:33:44;;;;;;;867.38;779.03;;;17.90;74.30;;;;;;5051054;28;20092;-71
2023/09/08 00:36:10;;;;;;;830.13;749.25;;;17.80;74.40;;;;;;5020188;28;20080;-68
2023/09/08 00:38:35;;;;;;;832.65;751.22;;;17.80;74.50;;;;;;5048229;28;20562;-71
2023/09/08 00:41:01;;;;;;;841.00;755.03;;;17.80;74.50;;;;;;5051356;28;20081;-71
2023/09/08 00:43:27;;;;;;;890.42;796.50;;;17.80;74.40;;;;;;5032903;28;20049;-70
2023/09/08 00:45:54;;;;;;;819.20;737.83;;;17.70;74.30;;;;;;5051482;28;20487;-72
2023/09/08 00:48:20;;;;;;;829.58;742.67;;;17.60;74.20;;;;;;5040400;28;20488;-72
2023/09/08 00:50:46;;;;;;;987.50;856.53;;;17.60;74.20;;;;;;5051576;28;20053;-72
2023/09/08 00:53:13;;;;;;;830.90;750.00;;;17.50;74.30;;;;;;5033586;28;20052;-67
2023/09/08 00:55:40;;;;;;;909.25;813.15;;;17.50;74.20;;;;;;5051918;28;20080;-71
2023/09/08 00:58:06;;;;;;;860.05;768.13;;;17.50;74.20;;;;;;5040101;28;20047;-72
2023/09/08 01:00:32;;;;;;;820.42;738.97;;;17.50;74.50;;;;;;5050307;28;20135;-66
2023/09/08 01:02:58;;;;;;;801.83;722.30;;;17.40;74.80;;;;;;5050123;28;20044;-72
2023/09/08 01:05:24;;;;;;;918.33;815.72;;;17.40;74.70;;;;;;5033416;28;20495;-72
2023/09/08 01:07:52;;;;;;;807.38;728.13;;;17.30;74.60;;;;;;5039121;28;20136;-64
2023/09/08 01:10:18;;;;;;;797.28;719.50;;;17.30;74.60;;;;;;5051437;28;20053;-70
2023/09/08 01:12:44;;;;;;;850.85;764.38;;;17.20;74.60;;;;;;5050997;28;20045;-72
2023/09/08 01:15:10;;;;;;;864.92;779.22;;;17.20;74.60;;;;;;5050185;28;20044;-69
2023/09/08 01:17:35;;;;;;;782.78;705.30;;;17.20;74.70;;;;;;5039281;28;20052;-72
2023/09/08 01:20:17;;;;;;;753.10;683.17;;;17.20;74.90;;;;;;5032873;28;20045;-71
2023/09/08 01:23:15;;;;;;;827.00;748.33;;;17.20;75.50;;;;;;5048266;28;20048;-71
2023/09/08 01:25:58;;;;;;;802.17;724.17;;;17.20;75.60;;;;;;5038237;28;20072;-72
2023/09/08 01:28:25;;;;;;;830.50;746.83;;;17.20;75.50;;;;;;5034782;28;20052;-72
2023/09/08 01:30:52;;;;;;;848.83;765.97;;;17.20;75.50;;;;;;5033249;28;20047;-72
2023/09/08 01:33:19;;;;;;;766.75;693.92;;;17.20;75.60;;;;;;5050388;28;20128;-70
2023/09/08 01:35:45;;;;;;;766.13;693.10;;;17.20;75.70;;;;;;5050771;28;20044;-71
2023/09/08 01:38:11;;;;;;;811.13;730.95;;;17.20;75.80;;;;;;5039547;28;20087;-69
2023/09/08 01:40:36;;;;;;;813.03;732.83;;;17.30;75.80;;;;;;5050033;28;20073;-72
2023/09/08 01:43:02;;;;;;;782.95;709.95;;;17.30;75.70;;;;;;5050387;28;20480;-72
2023/09/08 01:45:28;;;;;;;811.78;736.15;;;17.30;75.70;;;;;;5032038;28;20052;-72
2023/09/08 01:47:53;;;;;;;774.65;702.03;;;17.30;75.70;;;;;;5037575;28;20064;-69
2023/09/08 01:50:22;;;;;;;823.58;742.38;;;17.20;75.50;;;;;;5049804;28;20049;-71
2023/09/08 01:52:48;;;;;;;846.47;763.15;;;17.20;75.50;;;;;;5032062;28;20118;-71
2023/09/08 01:55:16;;;;;;;804.03;728.92;;;17.20;75.40;;;;;;5050069;28;20404;-71
2023/09/08 01:57:42;;;;;;;821.60;741.28;;;17.10;75.40;;;;;;5021179;28;20095;-72
2023/09/08 02:00:08;;;;;;;824.53;742.55;;;17.10;75.70;;;;;;5048951;28;20127;-70
2023/09/08 02:02:34;;;;;;;844.42;762.75;;;17.00;75.70;;;;;;5041257;28;20400;-73
2023/09/08 02:05:00;;;;;;;839.63;755.90;;;17.00;75.70;;;;;;5031550;28;20103;-70
2023/09/08 02:07:25;;;;;;;755.80;690.03;;;16.90;75.80;;;;;;5037371;28;20041;-72
2023/09/08 02:09:51;;;;;;;840.13;758.70;;;16.90;75.70;;;;;;5049482;28;20075;-71
2023/09/08 02:12:17;;;;;;;819.83;741.17;;;16.90;75.60;;;;;;5049292;28;20045;-72
2023/09/08 02:14:42;;;;;;;869.60;784.13;;;16.80;75.60;;;;;;5048721;28;20041;-66
2023/09/08 02:17:08;;;;;;;855.92;771.10;;;16.70;75.60;;;;;;5037880;28;20051;-72
2023/09/08 02:19:34;;;;;;;858.42;774.15;;;16.70;75.60;;;;;;5049442;28;20535;-70
2023/09/08 02:21:59;;;;;;;848.35;763.67;;;16.70;75.80;;;;;;5049963;28;20504;-72
2023/09/08 02:24:25;;;;;;;837.20;756.55;;;16.60;75.70;;;;;;5036745;28;20045;-72
2023/09/08 02:26:51;;;;;;;841.30;758.90;;;16.60;75.70;;;;;;5037601;28;20044;-72
2023/09/08 02:29:17;;;;;;;849.97;767.55;;;16.50;75.80;;;;;;5048271;28;20049;-71
2023/09/08 02:31:44;;;;;;;819.17;737.88;;;16.50;75.70;;;;;;5048722;28;20056;-69
2023/09/08 02:34:11;;;;;;;854.03;769.30;;;16.40;75.60;;;;;;5030749;28;20092;-71
2023/09/08 02:36:37;;;;;;;845.20;763.65;;;16.40;75.70;;;;;;5038659;28;20052;-72
2023/09/08 02:39:03;;;;;;;770.30;697.10;;;16.40;75.70;;;;;;5048698;28;20114;-72
2023/09/08 02:41:28;;;;;;;782.65;707.85;;;16.40;75.80;;;;;;5048826;28;20047;-71
2023/09/08 02:43:54;;;;;;;846.67;764.60;;;16.30;76.00;;;;;;5048841;28;20468;-72
2023/09/08 02:46:20;;;;;;;879.08;792.38;;;16.30;76.10;;;;;;5038467;28;20056;-71
2023/09/08 02:48:45;;;;;;;798.15;722.63;;;16.20;76.10;;;;;;5030815;28;20045;-72
2023/09/08 02:51:12;;;;;;;835.53;753.15;;;16.20;76.10;;;;;;5015475;28;20049;-72
2023/09/08 02:53:37;;;;;;;830.58;751.35;;;16.20;76.20;;;;;;5048013;28;20055;-73
2023/09/08 02:56:05;;;;;;;827.45;748.22;;;16.10;76.20;;;;;;5044031;28;20045;-66
2023/09/08 02:58:34;;;;;;;784.38;710.05;;;16.10;76.30;;;;;;5045096;28;20136;-72
2023/09/08 03:01:19;;;;;;;807.95;729.35;;;16.10;76.30;;;;;;5048470;28;20564;-72
2023/09/08 03:03:44;;;;;;;840.03;755.33;;;16.00;76.50;;;;;;5047626;28;20049;-69
2023/09/08 03:06:11;;;;;;;810.35;730.92;;;16.00;76.40;;;;;;5039152;28;20534;-71
2023/09/08 03:08:37;;;;;;;781.08;705.88;;;16.00;76.50;;;;;;5046120;28;20057;-71
2023/09/08 03:11:04;;;;;;;843.60;757.55;;;16.00;76.60;;;;;;5049183;28;20527;-71
2023/09/08 03:13:30;;;;;;;775.03;701.38;;;16.00;76.80;;;;;;5048435;28;20107;-68
2023/09/08 03:15:56;;;;;;;830.65;747.97;;;16.00;76.80;;;;;;5049136;28;20041;-72
2023/09/08 03:18:22;;;;;;;826.13;745.08;;;16.00;76.80;;;;;;5036127;28;20044;-71
2023/09/08 03:20:51;;;;;;;847.38;764.20;;;16.00;76.90;;;;;;5049145;28;20067;-72
2023/09/08 03:23:17;;;;;;;761.63;693.28;;;16.00;77.20;;;;;;5020767;28;20053;-71
2023/09/08 03:25:43;;;;;;;841.00;761.58;;;16.00;77.10;;;;;;5048013;28;20041;-70
2023/09/08 03:28:09;;;;;;;757.13;687.70;;;15.90;77.00;;;;;;5033387;28;20404;-72
2023/09/08 03:30:35;;;;;;;794.40;718.85;;;15.90;77.10;;;;;;5048190;28;20045;-72
2023/09/08 03:33:01;;;;;;;830.08;752.17;;;15.90;77.00;;;;;;5047827;28;20071;-71
2023/09/08 03:35:26;;;;;;;793.30;717.83;;;15.80;76.90;;;;;;5049187;28;20052;-72
2023/09/08 03:37:52;;;;;;;743.00;675.13;;;15.80;76.90;;;;;;5036893;28;20515;-72
2023/09/08 03:40:18;;;;;;;761.75;691.15;;;15.80;76.90;;;;;;5049030;28;20103;-72
2023/09/08 03:42:44;;;;;;;749.63;679.63;;;15.80;76.90;;;;;;5047717;28;20483;-71
2023/09/08 03:45:09;;;;;;;742.92;673.60;;;15.80;77.00;;;;;;5050982;28;20051;-72
2023/09/08 03:47:35;;;;;;;818.72;740.15;;;15.80;77.00;;;;;;5040823;28;20041;-70
2023/09/08 03:50:01;;;;;;;772.08;703.55;;;15.80;77.10;;;;;;5031128;28;20115;-68
2023/09/08 03:52:27;;;;;;;826.60;749.83;;;15.80;77.20;;;;;;5048135;28;20056;-72
2023/09/08 03:54:52;;;;;;;773.88;699.45;;;15.80;77.20;;;;;;5052473;28;20057;-71
2023/09/08 03:57:18;;;;;;;808.20;734.30;;;15.70;77.20;;;;;;5040339;28;20549;-72
2023/09/08 03:59:44;;;;;;;857.53;771.58;;;15.70;77.20;;;;;;5051729;28;20053;-70
2023/09/08 04:02:09;;;;;;;770.08;701.33;;;15.70;77.20;;;;;;5037017;28;20140;-72
2023/09/08 04:04:35;;;;;;;771.30;700.10;;;15.60;77.20;;;;;;5051606;28;20040;-71
2023/09/08 04:07:01;;;;;;;745.50;674.75;;;15.60;77.10;;;;;;5040527;28;20088;-71
2023/09/08 04:09:28;;;;;;;789.80;717.50;;;15.60;77.10;;;;;;5050840;28;20053;-71
2023/09/08 04:11:54;;;;;;;776.25;701.10;;;15.60;77.10;;;;;;5030839;28;20045;-71
2023/09/08 04:14:23;;;;;;;779.10;704.38;;;15.60;77.10;;;;;;5041712;28;20408;-72
2023/09/08 04:16:49;;;;;;;795.80;724.38;;;15.60;77.10;;;;;;5040608;28;20056;-72
2023/09/08 04:19:14;;;;;;;750.78;681.50;;;15.50;77.10;;;;;;5030213;28;20045;-70
2023/09/08 04:21:41;;;;;;;841.45;759.13;;;15.50;77.10;;;;;;5048476;28;20045;-72
2023/09/08 04:24:07;;;;;;;758.72;689.90;;;15.50;77.20;;;;;;5058369;28;20052;-70
2023/09/08 04:26:32;;;;;;;793.45;717.63;;;15.40;77.10;;;;;;5019465;28;20247;-71
2023/09/08 04:28:58;;;;;;;724.60;656.58;;;15.40;77.10;;;;;;5045244;28;20056;-71
2023/09/08 04:31:24;;;;;;;777.03;708.05;;;15.40;77.20;;;;;;5033864;28;20045;-72
2023/09/08 04:33:49;;;;;;;791.50;720.17;;;15.40;77.30;;;;;;5051185;28;20515;-71
2023/09/08 04:36:15;;;;;;;760.85;690.00;;;15.40;77.30;;;;;;5039545;28;20048;-70
2023/09/08 04:38:41;;;;;;;760.45;688.65;;;15.30;77.30;;;;;;5051092;28;20077;-71
2023/09/08 04:41:07;;;;;;;746.80;677.47;;;15.30;77.30;;;;;;5051057;28;20053;-70
2023/09/08 04:43:33;;;;;;;765.95;693.72;;;15.30;77.30;;;;;;5050859;28;20053;-72
2023/09/08 04:45:58;;;;;;;779.60;701.55;;;15.30;77.50;;;;;;5051289;28;20388;-71
2023/09/08 04:48:24;;;;;;;756.28;686.10;;;15.30;77.90;;;;;;5021293;28;20049;-72
2023/09/08 04:50:53;;;;;;;762.08;692.35;;;15.30;77.90;;;;;;5051106;28;20056;-72
2023/09/08 04:53:18;;;;;;;772.47;701.40;;;15.30;77.70;;;;;;5051114;28;20132;-72
2023/09/08 04:55:44;;;;;;;801.83;725.95;;;15.30;77.90;;;;;;5049008;28;20072;-73
2023/09/08 04:58:10;;;;;;;774.38;701.45;;;15.30;78.20;;;;;;5011953;28;20522;-71
2023/09/08 05:00:39;;;;;;;818.28;736.78;;;15.40;78.50;;;;;;5049101;28;20411;-72
2023/09/08 05:03:05;;;;;;;804.90;726.28;;;15.40;78.40;;;;;;5050253;28;20565;-72
2023/09/08 05:05:30;;;;;;;759.65;688.67;;;15.50;78.10;;;;;;5050293;28;20084;-70
2023/09/08 05:07:56;;;;;;;799.15;720.25;;;15.40;78.00;;;;;;5039319;28;20182;-72
2023/09/08 05:10:23;;;;;;;859.78;774.13;;;15.40;77.90;;;;;;5050735;28;20041;-72
2023/09/08 05:12:49;;;;;;;798.78;721.60;;;15.40;78.00;;;;;;5048324;28;20099;-69
2023/09/08 05:15:16;;;;;;;817.08;736.83;;;15.40;78.00;;;;;;5050203;28;20060;-72
2023/09/08 05:17:43;;;;;;;827.92;745.67;;;15.40;78.30;;;;;;5020746;28;20484;-72
2023/09/08 05:20:09;;;;;;;845.50;759.83;;;15.50;78.60;;;;;;5050317;28;20045;-70
2023/09/08 05:22:36;;;;;;;851.63;766.15;;;15.60;78.70;;;;;;5049495;28;20094;-71
2023/09/08 05:25:02;;;;;;;845.22;761.92;;;15.60;78.70;;;;;;5050271;28;20508;-72
2023/09/08 05:27:28;;;;;;;820.05;738.83;;;15.60;78.50;;;;;;5008516;28;20041;-72
2023/09/08 05:29:54;;;;;;;866.10;776.65;;;15.60;78.60;;;;;;5047573;28;20053;-71
2023/09/08 05:32:19;;;;;;;825.03;743.00;;;15.60;78.40;;;;;;5048335;28;20048;-70
2023/09/08 05:34:45;;;;;;;822.88;739.95;;;15.60;78.20;;;;;;5032140;28;20049;-69
2023/09/08 05:37:11;;;;;;;874.97;787.60;;;15.60;78.30;;;;;;5038128;28;20053;-72
2023/09/08 05:39:37;;;;;;;795.67;718.45;;;15.60;78.40;;;;;;5048925;28;20045;-71
2023/09/08 05:42:03;;;;;;;857.88;773.30;;;15.60;78.30;;;;;;5048829;28;20053;-71
2023/09/08 05:44:29;;;;;;;831.78;748.70;;;15.70;78.30;;;;;;5050083;28;20118;-68
2023/09/08 05:46:54;;;;;;;785.17;712.90;;;15.80;78.20;;;;;;5038382;28;20120;-71
2023/09/08 05:49:20;;;;;;;795.72;716.42;;;15.80;78.10;;;;;;5042116;28;20118;-70
2023/09/08 05:51:46;;;;;;;828.15;747.08;;;15.80;78.20;;;;;;5038442;28;20060;-70
2023/09/08 05:54:12;;;;;;;841.65;759.13;;;15.90;78.20;;;;;;5046589;28;20362;-69
2023/09/08 05:56:38;;;;;;;814.88;733.80;;;16.00;78.30;;;;;;5036001;28;20053;-69
2023/09/08 05:59:04;;;;;;;839.38;755.40;;;16.10;78.40;;;;;;5029570;28;20052;-72
2023/09/08 06:01:32;;;;;;;813.08;730.35;;;16.20;78.50;;;;;;5048569;28;20052;-72
2023/09/08 06:03:58;;;;;;;799.28;717.65;;;16.40;78.50;;;;;;5048749;28;20125;-72
2023/09/08 06:06:25;;;;;;;833.83;747.90;;;16.60;78.40;;;;;;5036713;28;20478;-70
2023/09/08 06:08:51;;;;;;;817.42;735.35;;;16.70;78.40;;;;;;5049387;28;20053;-70
2023/09/08 06:11:17;;;;;;;823.33;736.92;;;16.80;78.20;;;;;;5049484;28;20071;-72
2023/09/08 06:13:42;;;;;;;817.58;733.75;;;17.00;78.10;;;;;;5048655;28;20144;-72
2023/09/08 06:16:08;;;;;;;831.50;745.45;;;17.00;78.00;;;;;;5041086;28;20123;-62
2023/09/08 06:18:39;;;;;;;802.22;720.75;;;17.20;77.90;;;;;;5046602;28;20049;-70
2023/09/08 06:21:06;;;;;;;822.85;739.17;;;17.20;77.70;;;;;;5049708;28;20052;-71
2023/09/08 06:23:33;;;;;;;808.53;724.92;;;17.40;77.60;;;;;;5048050;28;20055;-67
2023/09/08 06:26:00;;;;;;;842.40;755.67;;;17.50;77.60;;;;;;5048279;28;20045;-72
2023/09/08 06:28:26;;;;;;;805.25;725.72;;;17.50;77.50;;;;;;5038882;28;20041;-71
2023/09/08 06:30:52;;;;;;;814.38;729.53;;;17.60;77.50;;;;;;5057767;28;20040;-71
2023/09/08 06:33:18;;;;;;;829.47;746.17;;;17.70;77.40;;;;;;5056586;28;20083;-72
2023/09/08 06:35:44;;;;;;;811.45;727.85;;;17.80;77.40;;;;;;5054463;28;20044;-72
2023/09/08 06:38:09;;;;;;;833.63;748.17;;;17.80;77.20;;;;;;5031175;28;20056;-70
2023/09/08 06:40:35;;;;;;;799.83;720.10;;;17.90;77.20;;;;;;5048618;28;20037;-70
2023/09/08 06:43:01;;;;;;;856.05;772.00;;;18.00;77.10;;;;;;5031198;28;20118;-70
2023/09/08 06:45:27;;;;;;;812.50;730.28;;;18.00;77.10;;;;;;5047673;28;20043;-72
2023/09/08 06:47:54;;;;;;;822.05;738.78;;;18.00;77.00;;;;;;5036654;28;20041;-71
2023/09/08 06:50:22;;;;;;;820.92;738.15;;;18.10;77.10;;;;;;5047740;28;20111;-71
2023/09/08 06:52:50;;;;;;;798.35;717.00;;;18.10;77.00;;;;;;5047936;28;20404;-71
2023/09/08 06:55:16;;;;;;;822.05;737.97;;;18.20;76.90;;;;;;5056886;28;20056;-72
2023/09/08 06:57:46;;;;;;;800.70;721.50;;;18.20;76.80;;;;;;5027727;28;20522;-69
2023/09/08 07:00:13;;;;;;;819.28;734.28;;;18.30;76.70;;;;;;5055280;28;20103;-71
2023/09/08 07:02:39;;;;;;;789.40;708.50;;;18.30;76.50;;;;;;5035159;28;20057;-70
2023/09/08 07:05:07;;;;;;;783.08;701.67;;;18.30;76.50;;;;;;5043676;28;20097;-71
2023/09/08 07:07:34;;;;;;;831.83;746.95;;;18.40;76.40;;;;;;5014966;28;20060;-64
2023/09/08 07:10:00;;;;;;;780.85;703.85;;;18.40;76.30;;;;;;5014880;28;20148;-67
2023/09/08 07:12:26;;;;;;;878.85;784.88;;;18.50;76.20;;;;;;4999873;28;20530;-71
2023/09/08 07:14:52;;;;;;;784.28;704.35;;;18.50;76.30;;;;;;5023493;28;20040;-71
2023/09/08 07:17:17;;;;;;;810.10;728.30;;;18.50;76.40;;;;;;5012229;28;20072;-70
2023/09/08 07:19:43;;;;;;;816.00;732.65;;;18.60;76.20;;;;;;5019172;28;20046;-68
2023/09/08 07:22:09;;;;;;;795.05;715.45;;;18.60;76.20;;;;;;5023694;28;20053;-72
2023/09/08 07:24:34;;;;;;;836.33;746.90;;;18.70;76.20;;;;;;5026440;28;20200;-69
2023/09/08 07:27:00;;;;;;;816.60;731.15;;;18.70;76.20;;;;;;5005578;28;20133;-69
2023/09/08 07:29:26;;;;;;;807.88;726.17;;;18.80;76.20;;;;;;5019895;28;20492;-72
2023/09/08 07:31:51;;;;;;;842.55;752.75;;;18.80;76.20;;;;;;5020083;28;20053;-72
2023/09/08 07:34:17;;;;;;;826.80;741.83;;;18.90;76.20;;;;;;5001354;28;20084;-64
2023/09/08 07:36:43;;;;;;;785.28;708.15;;;19.00;76.00;;;;;;5002770;28;20094;-64
2023/09/08 07:39:09;;;;;;;822.50;741.15;;;19.00;75.90;;;;;;5017904;28;20057;-66
2023/09/08 07:41:36;;;;;;;843.30;756.35;;;19.10;75.90;;;;;;5020567;28;20046;-72
2023/09/08 07:44:02;;;;;;;811.60;731.17;;;19.20;75.80;;;;;;5020528;28;20080;-69
2023/09/08 07:46:28;;;;;;;817.35;737.45;;;19.30;75.40;;;;;;5003138;28;20062;-64
2023/09/08 07:48:54;;;;;;;832.10;747.63;;;19.40;75.30;;;;;;5013224;28;20100;-64
2023/09/08 07:51:19;;;;;;;817.78;735.33;;;19.40;75.20;;;;;;5014319;28;20041;-70
2023/09/08 07:53:45;;;;;;;858.40;768.25;;;19.50;74.90;;;;;;5014690;28;20147;-71
2023/09/08 07:56:11;;;;;;;819.63;736.33;;;19.60;75.00;;;;;;5004428;28;20524;-69
2023/09/08 07:58:38;;;;;;;790.72;714.72;;;19.70;75.00;;;;;;5016595;28;20092;-66
2023/09/08 08:01:04;;;;;;;837.55;752.55;;;19.70;75.00;;;;;;5003878;28;20488;-71
2023/09/08 08:03:30;;;;;;;871.70;781.83;;;19.90;74.50;;;;;;5021409;28;20119;-67
2023/09/08 08:05:57;;;;;;;823.47;741.80;;;20.00;74.20;;;;;;5019129;28;20053;-71
2023/09/08 08:08:22;;;;;;;801.75;724.53;;;20.10;73.30;;;;;;5005487;28;20401;-71
2023/09/08 08:10:48;;;;;;;844.78;762.33;;;20.20;73.40;;;;;;5022285;28;20334;-67
2023/09/08 08:13:14;;;;;;;830.00;751.13;;;20.30;73.50;;;;;;5020906;28;20061;-69
2023/09/08 08:15:42;;;;;;;827.47;745.75;;;20.40;73.50;;;;;;5018961;28;20369;-71
2023/09/08 08:18:09;;;;;;;823.42;740.72;;;20.50;73.60;;;;;;5011073;28;20121;-68
2023/09/08 08:20:36;;;;;;;841.15;755.35;;;20.50;73.30;;;;;;5021095;28;20055;-69
2023/09/08 08:23:03;;;;;;;844.50;760.00;;;20.60;72.90;;;;;;5018206;28;20059;-72
2023/09/08 08:25:29;;;;;;;833.60;752.22;;;20.70;72.60;;;;;;5002611;28;20048;-71
2023/09/08 08:27:56;;;;;;;852.65;761.65;;;20.80;72.50;;;;;;5009231;28;20595;-66
2023/09/08 08:30:22;;;;;;;805.53;727.08;;;20.90;72.10;;;;;;5015247;28;20045;-71
2023/09/08 08:32:48;;;;;;;832.97;755.03;;;21.00;72.00;;;;;;5017573;28;20124;-71
2023/09/08 08:35:14;;;;;;;875.90;785.45;;;21.10;72.10;;;;;;5017156;28;20099;-69
2023/09/08 08:37:42;;;;;;;877.45;788.15;;;21.10;71.90;;;;;;5001894;28;20130;-70
2023/09/08 08:40:12;;;;;;;828.47;750.20;;;21.30;71.50;;;;;;5020595;28;20148;-63
2023/09/08 08:42:38;;;;;;;957.05;856.80;;;21.40;71.50;;;;;;5013902;28;20060;-65
2023/09/08 08:45:04;;;;;;;854.28;774.80;;;21.50;71.40;;;;;;5027125;28;20106;-71
2023/09/08 08:47:30;;;;;;;833.42;758.92;;;21.50;71.60;;;;;;5005388;28;20523;-71
2023/09/08 08:50:01;;;;;;;898.75;805.90;;;21.60;71.80;;;;;;5012458;28;20742;-67
2023/09/08 08:52:28;;;;;;;891.20;802.88;;;21.70;72.10;;;;;;5026717;28;20464;-67
2023/09/08 08:54:54;;;;;;;900.10;813.42;;;21.70;71.70;;;;;;5024103;28;20049;-69
2023/09/08 08:57:21;;;;;;;854.17;774.70;;;21.90;71.70;;;;;;5020423;28;20472;-71
2023/09/08 08:59:48;;;;;;;901.53;812.78;;;21.90;71.50;;;;;;4963538;28;20052;-70
2023/09/08 09:02:15;;;;;;;927.25;837.25;;;22.00;71.10;;;;;;5024933;28;20053;-67
2023/09/08 09:04:41;;;;;;;933.33;840.22;;;22.20;70.80;;;;;;5020804;28;20409;-69
2023/09/08 09:07:07;;;;;;;948.17;857.97;;;22.40;70.30;;;;;;5005155;28;20427;-68
2023/09/08 09:09:33;;;;;;;893.80;811.08;;;22.50;69.90;;;;;;5023692;28;20040;-70
2023/09/08 09:11:59;;;;;;;903.30;821.22;;;22.60;70.00;;;;;;5026421;28;20488;-71
2023/09/08 09:14:25;;;;;;;990.78;893.35;;;22.70;69.80;;;;;;5022003;28;20084;-70
2023/09/08 09:16:51;;;;;;;980.42;887.08;;;22.80;69.70;;;;;;5008647;28;20064;-67
2023/09/08 09:19:27;;;;;;;923.42;834.63;;;22.90;69.60;;;;;;5001251;28;20084;-69
2023/09/08 09:21:54;;;;;;;975.25;876.53;;;23.10;69.00;;;;;;4995035;28;20637;-70
2023/09/08 09:24:43;;;;;;;990.72;893.65;;;23.20;68.80;;;;;;5011561;28;20060;-71
2023/09/08 09:27:09;;;;;;;972.58;866.10;;;23.30;66.70;;;;;;5007883;28;20420;-72
2023/09/08 09:29:58;;;;;;;946.95;854.17;;;23.50;67.00;;;;;;5026367;28;20049;-69
2023/09/08 09:32:25;;;;;;;934.65;843.08;;;23.60;66.20;;;;;;5019694;28;20052;-70
2023/09/08 09:34:56;;;;;;;1009.78;898.97;;;23.80;67.10;;;;;;5024338;28;20702;-70
2023/09/08 09:37:22;;;;;;;1091.88;928.03;;;23.90;67.30;;;;;;5011815;28;20587;-70
2023/09/08 09:39:52;;;;;;;1063.43;943.72;;;23.90;67.40;;;;;;5005433;28;20065;-67
2023/09/08 09:42:19;;;;;;;1054.83;903.90;;;24.00;67.20;;;;;;5021373;28;20098;-72
2023/09/08 09:44:48;;;;;;;967.30;870.15;;;24.00;67.20;;;;;;5022719;28;20302;-73
2023/09/08 09:47:14;;;;;;;1063.10;933.47;;;24.10;66.90;;;;;;5008303;28;20440;-67
2023/09/08 09:49:44;;;;;;;1057.57;933.72;;;24.20;66.40;;;;;;5021331;28;20076;-70
2023/09/08 09:52:15;;;;;;;1023.22;912.92;;;24.30;66.40;;;;;;5015877;28;21103;-68
2023/09/08 09:54:43;;;;;;;995.17;891.25;;;24.40;66.50;;;;;;5015275;28;20456;-72
2023/09/08 09:57:14;;;;;;;953.65;853.42;;;24.40;66.20;;;;;;5008367;28;20049;-70
2023/09/08 09:59:43;;;;;;;1004.28;900.10;;;24.50;66.00;;;;;;5018780;28;20056;-67
2023/09/08 10:02:12;;;;;;;984.28;881.50;;;24.60;65.30;;;;;;5015233;28;20059;-63
2023/09/08 10:04:42;;;;;;;1003.92;894.80;;;24.60;65.70;;;;;;5018613;28;20610;-72
2023/09/08 10:07:08;;;;;;;1025.07;915.28;;;24.70;65.50;;;;;;4987916;28;20060;-68
2023/09/08 10:09:36;;;;;;;1032.28;923.72;;;25.00;65.40;;;;;;5016865;28;20075;-68
2023/09/08 10:12:05;;;;;;;1006.42;897.17;;;25.00;64.40;;;;;;5015511;28;20143;-68
2023/09/08 10:14:35;;;;;;;980.45;877.95;;;25.00;63.50;;;;;;5016040;28;20089;-66
2023/09/08 10:17:02;;;;;;;992.60;889.45;;;25.00;64.00;;;;;;5010839;28;20049;-71
2023/09/08 10:19:30;;;;;;;991.33;883.55;;;25.10;64.00;;;;;;5022176;28;20049;-69
2023/09/08 10:22:00;;;;;;;1034.80;922.13;;;25.10;64.30;;;;;;5010044;28;20048;-67
2023/09/08 10:24:33;;;;;;;1006.75;896.58;;;25.20;63.70;;;;;;5022576;28;20049;-72
2023/09/08 10:27:10;;;;;;;1026.68;919.95;;;25.30;62.90;;;;;;4995272;28;20125;-68
2023/09/08 10:29:37;;;;;;;1069.45;941.33;;;25.40;62.40;;;;;;5021472;28;20082;-67
2023/09/08 10:32:04;;;;;;;1021.90;903.13;;;25.40;63.00;;;;;;5021677;28;20052;-68
2023/09/08 10:34:31;;;;;;;1033.60;917.45;;;25.50;62.50;;;;;;5018692;28;20057;-69
2023/09/08 10:36:57;;;;;;;1017.53;897.50;;;25.60;62.80;;;;;;5003151;28;20500;-66
2023/09/08 10:39:30;;;;;;;1039.93;927.75;;;25.70;62.70;;;;;;5020722;28;20059;-68
2023/09/08 10:42:18;;;;;;;1067.78;931.90;;;25.80;62.20;;;;;;5021826;28;20041;-69
2023/09/08 10:44:49;;;;;;;1028.65;914.28;;;25.80;62.10;;;;;;5019808;28;20472;-67
2023/09/08 10:47:30;;;;;;;1038.65;903.97;;;25.90;63.20;;;;;;5009179;28;20053;-67
2023/09/08 10:49:57;;;;;;;1049.78;935.75;;;26.00;62.10;;;;;;5021755;28;20160;-70
2023/09/08 10:52:24;;;;;;;1018.13;904.78;;;26.00;62.70;;;;;;5018616;28;20052;-68
2023/09/08 10:54:55;;;;;;;1035.82;928.50;;;26.10;62.90;;;;;;5022562;28;20646;-68
2023/09/08 10:57:23;;;;;;;1049.22;936.15;;;26.10;63.00;;;;;;5012615;28;20117;-67
2023/09/08 11:00:00;;;;;;;985.80;884.03;;;26.10;62.50;;;;;;5022732;28;20042;-72
2023/09/08 11:02:38;;;;;;;999.00;895.58;;;26.10;62.90;;;;;;5020717;28;20687;-72
2023/09/08 11:05:07;;;;;;;1065.93;938.38;;;26.10;62.80;;;;;;5025640;28;20833;-68
2023/09/08 11:07:33;;;;;;;1061.57;946.85;;;26.10;62.70;;;;;;5009328;28;20253;-66
2023/09/08 11:10:02;;;;;;;1051.38;926.65;;;26.20;62.70;;;;;;5021893;28;20089;-68
2023/09/08 11:12:28;;;;;;;1041.43;928.30;;;26.30;62.10;;;;;;4994977;28;20480;-68
2023/09/08 11:14:55;;;;;;;1046.00;930.05;;;26.40;62.10;;;;;;5019207;28;20295;-70
2023/09/08 11:17:25;;;;;;;1045.90;922.08;;;26.40;61.80;;;;;;5004588;28;20041;-69
2023/09/08 11:19:51;;;;;;;1008.08;897.35;;;26.50;62.00;;;;;;5021644;28;20061;-67
2023/09/08 11:22:17;;;;;;;1028.88;916.42;;;26.60;61.60;;;;;;5018929;28;20056;-66
2023/09/08 11:24:44;;;;;;;1016.05;904.28;;;26.60;61.20;;;;;;5015607;28;20144;-68
2023/09/08 11:27:12;;;;;;;998.00;893.53;;;26.70;61.40;;;;;;5012516;28;20053;-68
2023/09/08 11:29:42;;;;;;;976.85;877.65;;;26.80;61.40;;;;;;5020873;28;20138;-65
2023/09/08 11:32:09;;;;;;;1057.75;940.03;;;26.90;61.10;;;;;;5023988;28;21155;-71
2023/09/08 11:34:35;;;;;;;1117.43;945.00;;;27.20;61.40;;;;;;5014316;28;20041;-65
2023/09/08 11:37:18;;;;;;;1015.33;906.47;;;27.30;61.10;;;;;;5007783;28;20051;-72
2023/09/08 11:39:45;;;;;;;1038.13;923.88;;;27.30;60.30;;;;;;5018732;28;20044;-67
2023/09/08 11:42:15;;;;;;;976.85;871.42;;;27.20;61.30;;;;;;5020420;28;20061;-68
2023/09/08 11:44:42;;;;;;;977.13;872.97;;;27.20;61.20;;;;;;5019289;28;20172;-71
2023/09/08 11:47:09;;;;;;;1103.53;936.45;;;27.20;60.20;;;;;;5011169;28;20420;-70
2023/09/08 11:49:43;;;;;;;1009.45;902.63;;;27.20;60.50;;;;;;4999558;28;21138;-68
2023/09/08 11:52:09;;;;;;;1086.47;924.85;;;27.20;60.70;;;;;;5019061;28;20063;-70
2023/09/08 11:54:37;;;;;;;1062.72;928.33;;;27.20;60.80;;;;;;5014733;28;20053;-66
2023/09/08 11:57:05;;;;;;;1079.82;931.95;;;27.20;61.20;;;;;;4995993;28;20061;-71
2023/09/08 11:59:33;;;;;;;1018.75;908.38;;;27.30;61.40;;;;;;5017186;28;20076;-72
2023/09/08 12:01:59;;;;;;;1007.75;899.78;;;27.20;61.90;;;;;;5018720;28;20060;-69
2023/09/08 12:04:25;;;;;;;994.42;887.03;;;27.30;62.00;;;;;;5017527;28;20491;-70
2023/09/08 12:06:58;;;;;;;1068.13;946.65;;;27.30;61.50;;;;;;5006042;28;20101;-70